Time;durP1;ratioP1;P1;durP2;ratioP2;P2;SDS_P1;SDS_P2;PMS_P1;PMS_P2;Temp;Humidity;BMP_temperature;BMP_pressure;BME280_temperature;BME280_humidity;BME280_pressure;Samples;Min_cycle;Max_cycle;Signal;HPM_P1;HPM_P2
2021/11/21 00:01:21;;;;;;;36.78;19.85;;;;;;;5.96;100.00;100650.00;5013163;28;20025;-71
2021/11/21 00:03:47;;;;;;;33.88;19.92;;;;;;;5.93;100.00;100644.88;5012695;28;20026;-67
2021/11/21 00:06:14;;;;;;;36.15;19.27;;;;;;;5.90;100.00;100647.72;5012708;28;20495;-67
2021/11/21 00:08:40;;;;;;;33.78;19.98;;;;;;;5.89;100.00;100650.50;5012692;28;20041;-68
2021/11/21 00:11:05;;;;;;;31.65;19.60;;;;;;;5.81;100.00;100650.09;5012385;28;20026;-68
2021/11/21 00:13:32;;;;;;;29.80;18.30;;;;;;;5.82;100.00;100655.38;5012757;28;20125;-68
2021/11/21 00:15:57;;;;;;;31.30;19.00;;;;;;;5.76;100.00;100645.06;5011223;28;20026;-66
2021/11/21 00:18:23;;;;;;;31.30;18.63;;;;;;;5.74;100.00;100636.31;5012658;28;20175;-66
2021/11/21 00:20:48;;;;;;;30.38;19.05;;;;;;;5.69;100.00;100638.44;4994725;28;20441;-67
2021/11/21 00:23:14;;;;;;;30.80;18.67;;;;;;;5.62;100.00;100630.91;5012393;28;20022;-67
2021/11/21 00:25:40;;;;;;;30.75;18.60;;;;;;;5.64;100.00;100635.19;5012328;28;20033;-68
2021/11/21 00:28:06;;;;;;;33.38;20.08;;;;;;;5.59;100.00;100631.97;5012195;28;20029;-67
2021/11/21 00:30:31;;;;;;;33.20;19.83;;;;;;;5.59;100.00;100647.06;4994335;28;20036;-68
2021/11/21 00:32:57;;;;;;;33.13;19.45;;;;;;;5.56;100.00;100636.63;5011981;28;20026;-68
2021/11/21 00:35:22;;;;;;;29.13;17.90;;;;;;;5.55;100.00;100641.06;5012248;28;20069;-67
2021/11/21 00:37:48;;;;;;;31.55;18.17;;;;;;;5.52;100.00;100643.09;5012208;28;20120;-68
2021/11/21 00:40:14;;;;;;;31.38;19.10;;;;;;;5.50;100.00;100643.19;5011823;28;20422;-67
2021/11/21 00:42:39;;;;;;;34.10;19.55;;;;;;;5.42;100.00;100633.97;5011990;28;20068;-67
2021/11/21 00:45:09;;;;;;;31.02;18.42;;;;;;;5.39;100.00;100632.38;5011991;28;20084;-70
2021/11/21 00:47:35;;;;;;;33.72;19.40;;;;;;;5.33;100.00;100623.88;5012334;28;20038;-70
2021/11/21 00:50:03;;;;;;;31.50;18.40;;;;;;;5.37;100.00;100631.59;5012247;28;20040;-70
2021/11/21 00:52:30;;;;;;;29.05;17.63;;;;;;;5.33;100.00;100616.78;5012216;28;20032;-70
2021/11/21 00:55:07;;;;;;;32.25;18.67;;;;;;;5.19;100.00;100595.47;5011997;28;20030;-70
2021/11/21 00:57:33;;;;;;;30.52;18.02;;;;;;;5.27;100.00;100614.50;5012052;28;20025;-66
2021/11/21 00:59:58;;;;;;;31.65;18.55;;;;;;;5.29;100.00;100614.41;5011512;28;20467;-68
2021/11/21 01:02:23;;;;;;;34.08;19.52;;;;;;;5.24;100.00;100619.13;4993998;28;20041;-67
2021/11/21 01:04:49;;;;;;;28.58;18.05;;;;;;;5.16;100.00;100606.28;5011809;28;20080;-67
2021/11/21 01:07:17;;;;;;;34.13;20.63;;;;;;;5.20;100.00;100615.81;5011677;28;20029;-68
2021/11/21 01:09:43;;;;;;;31.27;19.55;;;;;;;5.10;100.00;100600.50;5011477;28;20057;-68
2021/11/21 01:12:10;;;;;;;30.40;19.17;;;;;;;5.17;100.00;100608.03;5010013;28;20083;-67
2021/11/21 01:14:37;;;;;;;39.03;20.40;;;;;;;5.14;100.00;100607.34;5010012;28;20367;-67
2021/11/21 01:17:03;;;;;;;34.50;20.90;;;;;;;5.13;100.00;100603.00;5011251;28;20030;-68
2021/11/21 01:19:29;;;;;;;37.13;21.33;;;;;;;5.11;100.00;100597.78;5011871;28;20041;-71
2021/11/21 01:21:55;;;;;;;32.45;20.13;;;;;;;4.93;100.00;100579.44;4993923;28;20367;-71
2021/11/21 01:24:20;;;;;;;33.00;19.55;;;;;;;5.09;100.00;100610.28;5011897;28;20057;-70
2021/11/21 01:26:46;;;;;;;33.17;20.50;;;;;;;5.04;100.00;100596.44;4993949;28;20107;-69
2021/11/21 01:29:11;;;;;;;35.28;21.08;;;;;;;5.08;100.00;100597.09;5011659;28;20398;-70
2021/11/21 01:31:38;;;;;;;32.45;19.85;;;;;;;5.02;100.00;100593.00;5011522;28;20026;-70
2021/11/21 01:34:04;;;;;;;35.05;21.15;;;;;;;4.94;100.00;100579.34;5011263;28;20034;-67
2021/11/21 01:36:29;;;;;;;38.88;21.38;;;;;;;4.94;100.00;100584.66;5011328;28;20738;-67
2021/11/21 01:38:55;;;;;;;33.35;20.17;;;;;;;4.88;100.00;100581.50;5010747;28;20045;-67
2021/11/21 01:41:20;;;;;;;33.83;20.55;;;;;;;4.91;100.00;100579.53;5010262;28;20117;-67
2021/11/21 01:43:46;;;;;;;33.47;20.50;;;;;;;4.81;100.00;100578.38;4993168;28;20120;-67
2021/11/21 01:46:11;;;;;;;31.02;19.67;;;;;;;4.78;100.00;100575.91;5010704;28;20064;-68
2021/11/21 01:48:37;;;;;;;31.95;18.90;;;;;;;4.77;99.74;100576.81;5010892;28;20484;-67
2021/11/21 01:51:06;;;;;;;33.90;20.25;;;;;;;4.74;99.79;100584.97;5010972;28;20117;-71
2021/11/21 01:53:32;;;;;;;32.33;19.55;;;;;;;4.67;99.45;100570.34;5011200;28;20804;-70
2021/11/21 01:55:58;;;;;;;32.10;20.30;;;;;;;4.63;99.25;100564.38;5010750;28;20057;-67
2021/11/21 01:58:24;;;;;;;31.33;19.83;;;;;;;4.61;99.41;100568.06;5010732;28;20041;-68
2021/11/21 02:00:50;;;;;;;31.33;18.98;;;;;;;4.59;99.52;100572.63;5010742;28;20113;-66
2021/11/21 02:03:17;;;;;;;35.70;19.80;;;;;;;4.54;99.27;100570.25;5010400;28;20542;-67
2021/11/21 02:05:44;;;;;;;31.77;20.38;;;;;;;4.50;99.69;100559.88;5010554;28;20112;-67
2021/11/21 02:08:09;;;;;;;32.63;21.00;;;;;;;4.44;99.88;100547.81;5010392;28;20534;-67
2021/11/21 02:10:35;;;;;;;31.13;19.42;;;;;;;4.42;100.00;100543.56;5010396;28;20121;-67
2021/11/21 02:13:02;;;;;;;34.65;21.85;;;;;;;4.49;100.00;100558.19;5010063;28;20463;-67
2021/11/21 02:15:28;;;;;;;37.40;20.92;;;;;;;4.46;100.00;100555.69;5010394;28;20041;-68
2021/11/21 02:17:54;;;;;;;40.83;22.60;;;;;;;4.44;100.00;100554.94;5010220;28;20502;-67
2021/11/21 02:20:35;;;;;;;36.05;20.73;;;;;;;4.42;100.00;100554.19;5010273;28;20028;-68
2021/11/21 02:23:02;;;;;;;39.85;20.55;;;;;;;4.35;100.00;100547.50;5010056;28;20028;-70
2021/11/21 02:25:28;;;;;;;32.38;20.90;;;;;;;4.39;100.00;100552.53;5008170;28;20117;-69
2021/11/21 02:27:53;;;;;;;34.67;19.73;;;;;;;4.35;100.00;100548.38;5010390;28;20526;-70
2021/11/21 02:30:19;;;;;;;32.00;20.88;;;;;;;4.31;100.00;100535.34;5010474;28;20113;-70
2021/11/21 02:32:49;;;;;;;36.15;21.88;;;;;;;4.31;99.82;100540.66;5010534;28;20026;-71
2021/11/21 02:35:16;;;;;;;33.40;20.02;;;;;;;4.29;100.00;100547.88;5010288;28;20064;-70
2021/11/21 02:37:41;;;;;;;35.63;22.00;;;;;;;4.26;100.00;100545.41;5010102;28;20037;-70
2021/11/21 02:40:09;;;;;;;38.90;23.35;;;;;;;4.16;100.00;100534.44;5008563;28;20486;-70
2021/11/21 02:42:34;;;;;;;42.42;23.92;;;;;;;4.11;99.86;100527.72;5010210;28;20424;-70
2021/11/21 02:45:01;;;;;;;51.05;25.52;;;;;;;4.10;99.68;100528.66;5009896;28;20060;-70
2021/11/21 02:47:34;;;;;;;40.95;23.02;;;;;;;4.07;98.95;100532.31;5010304;28;20029;-69
2021/11/21 02:50:06;;;;;;;45.08;24.00;;;;;;;3.96;98.35;100524.13;5009860;28;20376;-69
2021/11/21 02:52:32;;;;;;;44.00;23.63;;;;;;;4.00;97.87;100538.09;5010012;28;20084;-70
2021/11/21 02:54:58;;;;;;;37.97;21.77;;;;;;;3.94;97.48;100531.31;5009767;28;20034;-70
2021/11/21 02:57:26;;;;;;;39.47;21.33;;;;;;;3.78;97.43;100514.56;5010181;28;20060;-71
2021/11/21 02:59:52;;;;;;;40.20;22.35;;;;;;;3.84;97.41;100527.50;5010162;28;20029;-69
2021/11/21 03:02:19;;;;;;;35.63;19.73;;;;;;;3.76;97.31;100520.91;5009903;28;20475;-69
2021/11/21 03:04:46;;;;;;;41.50;22.73;;;;;;;3.75;97.55;100520.06;5009795;28;20053;-70
2021/11/21 03:07:12;;;;;;;35.30;21.83;;;;;;;3.73;97.29;100523.72;5009543;28;20022;-70
2021/11/21 03:09:38;;;;;;;47.95;24.75;;;;;;;3.63;97.46;100503.97;4992213;28;20030;-69
2021/11/21 03:12:04;;;;;;;40.80;23.33;;;;;;;3.64;96.91;100518.97;5009659;28;20117;-69
2021/11/21 03:14:29;;;;;;;50.13;25.75;;;;;;;3.55;97.21;100500.94;5009841;28;20116;-70
2021/11/21 03:16:55;;;;;;;48.53;24.52;;;;;;;3.51;97.11;100502.03;5009840;28;20044;-70
2021/11/21 03:19:20;;;;;;;47.40;26.23;;;;;;;3.44;96.71;100490.91;5009646;28;20371;-70
2021/11/21 03:21:46;;;;;;;56.42;24.98;;;;;;;3.49;96.63;100501.25;5009562;28;20026;-70
2021/11/21 03:24:11;;;;;;;46.25;24.05;;;;;;;3.45;96.62;100494.44;5009556;28;20390;-70
2021/11/21 03:26:37;;;;;;;41.92;24.00;;;;;;;3.38;96.55;100488.59;4992116;28;20061;-70
2021/11/21 03:29:05;;;;;;;43.25;24.02;;;;;;;3.40;96.60;100496.47;4991730;28;20026;-70
2021/11/21 03:31:30;;;;;;;38.25;22.25;;;;;;;3.29;96.61;100485.63;4991895;28;20038;-70
2021/11/21 03:33:56;;;;;;;40.42;22.45;;;;;;;3.32;96.57;100488.94;5009543;28;20037;-70
2021/11/21 03:36:21;;;;;;;39.30;22.80;;;;;;;3.30;96.37;100489.97;4990763;28;20077;-70
2021/11/21 03:38:47;;;;;;;38.22;22.13;;;;;;;3.24;96.29;100482.34;5009335;28;20053;-69
2021/11/21 03:41:12;;;;;;;39.30;23.40;;;;;;;3.20;96.30;100492.28;5009198;28;20105;-69
2021/11/21 03:43:38;;;;;;;42.30;24.25;;;;;;;3.20;96.34;100480.81;5009570;28;20121;-70
2021/11/21 03:46:03;;;;;;;38.55;22.52;;;;;;;3.06;96.35;100468.31;4991555;28;20069;-69
2021/11/21 03:48:29;;;;;;;39.15;23.60;;;;;;;3.00;96.74;100458.06;5008153;28;20026;-67
2021/11/21 03:50:55;;;;;;;35.00;21.73;;;;;;;3.05;96.94;100465.75;5007892;28;20074;-67
2021/11/21 03:53:20;;;;;;;32.28;20.67;;;;;;;3.05;96.92;100471.06;5009039;28;20030;-68
2021/11/21 03:55:47;;;;;;;35.38;20.50;;;;;;;3.02;97.15;100465.91;5009117;28;20088;-67
2021/11/21 03:58:12;;;;;;;36.65;22.17;;;;;;;3.03;97.25;100476.44;5009125;28;20113;-66
2021/11/21 04:00:38;;;;;;;38.85;22.23;;;;;;;2.99;97.49;100469.59;5009353;28;20128;-67
2021/11/21 04:03:05;;;;;;;33.17;20.48;;;;;;;2.99;97.18;100466.09;5008899;28;20030;-66
2021/11/21 04:05:31;;;;;;;36.78;21.35;;;;;;;3.00;97.85;100466.00;5010622;28;20057;-67
2021/11/21 04:07:57;;;;;;;33.60;19.90;;;;;;;2.99;98.37;100448.41;5012857;28;20038;-68
2021/11/21 04:10:23;;;;;;;34.00;20.27;;;;;;;3.02;99.00;100463.28;5010418;28;20033;-67
2021/11/21 04:12:49;;;;;;;35.42;19.85;;;;;;;3.05;100.00;100455.16;5012544;28;20041;-67
2021/11/21 04:15:15;;;;;;;34.90;20.20;;;;;;;3.11;100.00;100458.34;5011090;28;20128;-68
2021/11/21 04:17:41;;;;;;;34.13;20.58;;;;;;;3.21;100.00;100459.53;5012459;28;20124;-66
2021/11/21 04:20:09;;;;;;;36.83;21.77;;;;;;;3.21;100.00;100443.63;5012297;28;20034;-66
2021/11/21 04:22:35;;;;;;;39.90;22.92;;;;;;;3.34;100.00;100459.69;5012422;28;20072;-66
2021/11/21 04:25:00;;;;;;;36.63;21.33;;;;;;;3.36;100.00;100444.56;5012183;28;20058;-67
2021/11/21 04:27:27;;;;;;;35.75;20.65;;;;;;;3.44;100.00;100448.50;5012724;28;20037;-68
2021/11/21 04:29:56;;;;;;;41.35;21.02;;;;;;;3.49;100.00;100443.81;5012128;28;20029;-67
2021/11/21 04:32:23;;;;;;;35.10;21.05;;;;;;;3.51;100.00;100441.91;5012144;28;20022;-68
2021/11/21 04:38:37;;;;;;;31.05;20.80;;;;;;;3.48;100.00;100401.47;5045761;22;20072;-71
2021/11/21 04:41:03;;;;;;;34.40;19.70;;;;;;;3.51;100.00;100399.47;5037304;28;20508;-71
2021/11/21 04:43:28;;;;;;;34.78;20.30;;;;;;;3.60;100.00;100414.88;5022212;28;20021;-71
2021/11/21 04:45:56;;;;;;;30.80;19.05;;;;;;;3.59;100.00;100409.66;5036852;28;20562;-71
2021/11/21 04:48:23;;;;;;;36.83;20.15;;;;;;;3.61;100.00;100410.44;5041210;28;20021;-71
2021/11/21 04:50:50;;;;;;;29.13;18.58;;;;;;;3.56;100.00;100397.44;5049869;28;20480;-71
2021/11/21 04:53:15;;;;;;;29.00;18.83;;;;;;;3.52;100.00;100395.88;5014513;28;20036;-67
2021/11/21 04:55:41;;;;;;;27.85;17.92;;;;;;;3.56;100.00;100391.25;5031050;28;20037;-67
2021/11/21 04:58:06;;;;;;;26.63;17.63;;;;;;;3.59;100.00;100383.13;5031235;28;20029;-68
2021/11/21 05:00:32;;;;;;;25.10;15.60;;;;;;;3.57;100.00;100392.97;5030896;28;20056;-66
2021/11/21 05:02:57;;;;;;;21.98;15.65;;;;;;;3.64;100.00;100404.94;5031068;28;20029;-67
2021/11/21 05:05:24;;;;;;;24.15;16.00;;;;;;;3.63;100.00;100392.63;5031624;28;20099;-69
2021/11/21 05:07:51;;;;;;;24.20;15.95;;;;;;;3.62;100.00;100397.09;5031711;28;20033;-67
2021/11/21 05:10:18;;;;;;;24.00;16.60;;;;;;;3.61;100.00;100382.09;5032170;28;20033;-67
2021/11/21 05:12:44;;;;;;;24.67;16.05;;;;;;;3.57;100.00;100385.88;5031718;28;20040;-68
2021/11/21 05:15:11;;;;;;;25.17;16.65;;;;;;;3.53;100.00;100372.88;5013901;28;20428;-67
2021/11/21 05:17:37;;;;;;;27.25;16.65;;;;;;;3.60;100.00;100388.34;5030671;28;20497;-67
2021/11/21 05:20:04;;;;;;;25.15;17.48;;;;;;;3.61;100.00;100392.69;5013955;28;20143;-67
2021/11/21 05:22:30;;;;;;;25.42;16.63;;;;;;;3.58;100.00;100384.91;5031678;28;20049;-66
2021/11/21 05:24:55;;;;;;;22.80;16.02;;;;;;;3.53;100.00;100372.88;5031567;28;20081;-71
2021/11/21 05:27:23;;;;;;;21.60;14.40;;;;;;;3.58;100.00;100382.25;5031726;28;20033;-71
2021/11/21 05:29:50;;;;;;;19.95;14.32;;;;;;;3.60;100.00;100392.78;5014054;28;20389;-70
2021/11/21 05:32:15;;;;;;;21.02;14.77;;;;;;;3.56;100.00;100381.53;5031802;28;20500;-72
2021/11/21 05:34:41;;;;;;;21.90;14.00;;;;;;;3.56;100.00;100380.66;5031598;28;20138;-71
2021/11/21 05:37:06;;;;;;;23.92;14.82;;;;;;;3.55;100.00;100382.44;5031451;28;20049;-71
2021/11/21 05:39:32;;;;;;;21.20;13.95;;;;;;;3.52;100.00;100373.84;5031231;28;20187;-71
2021/11/21 05:41:57;;;;;;;19.33;13.27;;;;;;;3.42;100.00;100368.19;5031034;28;20021;-71
2021/11/21 05:44:23;;;;;;;21.55;16.10;;;;;;;3.43;100.00;100369.06;5031291;28;20424;-71
2021/11/21 05:46:49;;;;;;;28.15;17.67;;;;;;;3.47;100.00;100383.84;5031591;28;20033;-71
2021/11/21 05:49:15;;;;;;;28.77;18.35;;;;;;;3.36;100.00;100365.06;5031340;28;20026;-71
2021/11/21 05:51:40;;;;;;;32.90;19.65;;;;;;;3.33;100.00;100366.09;5013250;28;20609;-72
2021/11/21 05:54:06;;;;;;;34.20;19.42;;;;;;;3.37;100.00;100378.22;5031054;28;20108;-71
2021/11/21 05:56:32;;;;;;;31.45;17.80;;;;;;;3.34;100.00;100377.53;5031046;28;20485;-71
2021/11/21 05:58:57;;;;;;;27.92;15.52;;;;;;;3.30;100.00;100374.22;5030998;28;20473;-71
2021/11/21 06:01:23;;;;;;;27.13;16.30;;;;;;;3.28;100.00;100375.22;5031012;28;20029;-71
2021/11/21 06:03:54;;;;;;;26.83;15.63;;;;;;;3.22;99.85;100372.97;5031653;28;20033;-71
2021/11/21 06:06:20;;;;;;;25.05;15.98;;;;;;;3.23;99.63;100377.31;5031314;28;20025;-71
2021/11/21 06:08:46;;;;;;;24.05;15.18;;;;;;;3.18;99.93;100377.56;5030878;28;20036;-71
2021/11/21 06:11:11;;;;;;;23.23;15.75;;;;;;;3.04;99.44;100350.13;5030728;28;20029;-71
2021/11/21 06:13:37;;;;;;;21.45;14.48;;;;;;;3.14;99.76;100369.88;5030854;28;20040;-72
2021/11/21 06:16:03;;;;;;;21.63;14.65;;;;;;;3.10;99.59;100355.09;5030785;28;20103;-71
2021/11/21 06:18:28;;;;;;;21.58;13.43;;;;;;;3.15;100.00;100368.91;5012999;28;20017;-72
2021/11/21 06:20:54;;;;;;;18.73;13.20;;;;;;;3.14;100.00;100365.44;5030546;28;20033;-71
2021/11/21 06:23:19;;;;;;;17.50;11.75;;;;;;;3.14;100.00;100359.28;5030835;28;20014;-71
2021/11/21 06:25:45;;;;;;;18.70;13.18;;;;;;;3.24;100.00;100365.75;5030552;28;20071;-71
2021/11/21 06:28:12;;;;;;;19.90;13.63;;;;;;;3.21;100.00;100350.03;5030102;28;20090;-71
2021/11/21 06:30:41;;;;;;;23.42;15.27;;;;;;;3.32;100.00;100348.47;5030522;28;20024;-72
2021/11/21 06:33:07;;;;;;;21.17;14.63;;;;;;;3.41;100.00;100355.03;5030327;28;20385;-71
2021/11/21 06:35:33;;;;;;;22.65;14.77;;;;;;;3.47;100.00;100344.06;5012754;28;20025;-70
2021/11/21 06:37:59;;;;;;;26.35;16.50;;;;;;;3.49;100.00;100334.25;5030242;28;20057;-72
2021/11/21 06:40:25;;;;;;;25.88;16.38;;;;;;;3.60;100.00;100348.56;5030241;28;20036;-71
2021/11/21 06:42:51;;;;;;;23.52;15.70;;;;;;;3.61;100.00;100333.53;5030473;28;20025;-72
2021/11/21 06:45:16;;;;;;;29.30;17.42;;;;;;;3.73;100.00;100346.03;5030425;28;20036;-72
2021/11/21 06:47:42;;;;;;;30.08;18.45;;;;;;;3.77;100.00;100332.50;5030543;28;20102;-71
2021/11/21 06:50:11;;;;;;;31.52;20.02;;;;;;;3.84;100.00;100333.00;5030266;28;20025;-71
2021/11/21 06:52:37;;;;;;;31.17;18.73;;;;;;;3.89;100.00;100326.47;5030171;28;20033;-72
2021/11/21 06:55:05;;;;;;;35.20;20.42;;;;;;;3.96;100.00;100324.28;5030185;28;20029;-71
2021/11/21 06:57:33;;;;;;;29.65;19.52;;;;;;;4.04;100.00;100322.91;5012481;28;20112;-72
2021/11/21 06:59:58;;;;;;;35.70;21.13;;;;;;;4.12;100.00;100323.28;5030072;28;20037;-71
2021/11/21 07:02:24;;;;;;;31.48;19.73;;;;;;;4.16;100.00;100324.78;5012502;28;20113;-71
2021/11/21 07:04:49;;;;;;;35.70;20.80;;;;;;;4.25;100.00;100334.84;5012212;28;20072;-70
2021/11/21 07:07:16;;;;;;;32.70;20.08;;;;;;;4.16;100.00;100303.56;5030133;28;20493;-71
2021/11/21 07:09:44;;;;;;;36.83;19.90;;;;;;;4.33;100.00;100326.41;5030121;28;20059;-71
2021/11/21 07:12:11;;;;;;;31.50;18.75;;;;;;;4.42;100.00;100336.47;5029933;28;20389;-71
2021/11/21 07:14:36;;;;;;;32.60;19.38;;;;;;;4.46;100.00;100336.16;5030220;28;20025;-71
2021/11/21 07:17:02;;;;;;;28.67;18.63;;;;;;;4.52;100.00;100333.09;5030184;28;20040;-71
2021/11/21 07:19:28;;;;;;;31.40;18.13;;;;;;;4.58;100.00;100337.22;5030130;28;20026;-72
2021/11/21 07:21:53;;;;;;;27.25;17.48;;;;;;;4.58;100.00;100329.25;5030568;28;20133;-71
2021/11/21 07:24:19;;;;;;;25.50;16.40;;;;;;;4.62;100.00;100325.44;5012971;28;20120;-72
2021/11/21 07:26:44;;;;;;;25.85;16.98;;;;;;;4.72;100.00;100324.75;5030741;28;20026;-72
2021/11/21 07:29:10;;;;;;;26.73;16.55;;;;;;;4.79;100.00;100335.81;5030648;28;20493;-72
2021/11/21 07:31:36;;;;;;;27.02;17.40;;;;;;;4.87;100.00;100322.06;5030522;28;20025;-71
2021/11/21 07:34:03;;;;;;;26.23;17.38;;;;;;;4.89;100.00;100321.00;5030134;28;20024;-72
2021/11/21 07:36:29;;;;;;;27.48;17.63;;;;;;;4.94;100.00;100318.03;5030235;28;20256;-71
2021/11/21 07:38:54;;;;;;;26.20;16.95;;;;;;;4.96;100.00;100311.66;5030467;28;20061;-71
2021/11/21 07:41:20;;;;;;;32.42;19.60;;;;;;;5.04;100.00;100314.69;5033518;28;20043;-72
2021/11/21 07:43:46;;;;;;;30.52;18.88;;;;;;;5.11;100.00;100323.97;5034108;28;20025;-71
2021/11/21 07:46:12;;;;;;;31.40;19.50;;;;;;;5.17;100.00;100320.91;5034214;28;20034;-71
2021/11/21 07:48:37;;;;;;;33.00;20.17;;;;;;;5.23;100.00;100309.88;5033950;28;20071;-71
2021/11/21 07:51:04;;;;;;;34.50;20.67;;;;;;;5.27;100.00;100311.38;5033816;28;20029;-72
2021/11/21 07:53:29;;;;;;;36.03;20.02;;;;;;;5.30;100.00;100305.00;5033650;28;20029;-72
2021/11/21 07:55:55;;;;;;;34.83;21.67;;;;;;;5.32;100.00;100298.63;5033823;28;20029;-72
2021/11/21 07:58:21;;;;;;;34.90;21.25;;;;;;;5.45;100.00;100307.47;5033567;28;20220;-71
2021/11/21 08:00:47;;;;;;;33.95;20.52;;;;;;;5.51;100.00;100301.75;5033510;28;20517;-72
2021/11/21 08:03:12;;;;;;;36.40;21.92;;;;;;;5.57;100.00;100300.47;5033312;28;20021;-71
2021/11/21 08:05:39;;;;;;;32.72;19.83;;;;;;;5.59;100.00;100288.81;5033403;28;20484;-71
2021/11/21 08:08:05;;;;;;;30.75;20.05;;;;;;;5.57;100.00;100282.72;5033267;28;20025;-72
2021/11/21 08:10:31;;;;;;;34.58;22.17;;;;;;;5.68;100.00;100290.81;5033263;28;20083;-71
2021/11/21 08:12:56;;;;;;;33.28;20.50;;;;;;;5.71;100.00;100279.13;5033471;28;20052;-72
2021/11/21 08:15:22;;;;;;;27.88;18.40;;;;;;;5.81;100.00;100288.19;5033240;28;20029;-72
2021/11/21 08:17:47;;;;;;;27.10;18.50;;;;;;;5.77;100.00;100282.19;5015388;28;20120;-71
2021/11/21 08:20:13;;;;;;;27.70;18.67;;;;;;;5.82;100.00;100292.56;5033168;28;20091;-72
2021/11/21 08:22:39;;;;;;;30.10;17.75;;;;;;;5.84;100.00;100280.03;5032987;28;20022;-67
2021/11/21 08:25:05;;;;;;;26.58;17.25;;;;;;;5.81;100.00;100269.56;5033346;28;20029;-66
2021/11/21 08:27:31;;;;;;;25.30;17.45;;;;;;;5.95;100.00;100299.63;5032939;28;20512;-68
2021/11/21 08:29:56;;;;;;;29.13;19.13;;;;;;;6.03;100.00;100299.91;5033093;28;20021;-68
2021/11/21 08:32:22;;;;;;;27.17;17.40;;;;;;;6.04;100.00;100298.97;5032649;28;20357;-68
2021/11/21 08:34:47;;;;;;;30.63;19.02;;;;;;;6.07;100.00;100292.59;5032868;28;20469;-66
2021/11/21 08:37:13;;;;;;;28.30;19.10;;;;;;;6.09;100.00;100282.66;5032493;28;20061;-67
2021/11/21 08:39:39;;;;;;;27.63;18.70;;;;;;;6.11;100.00;100289.59;5032836;28;20491;-68
2021/11/21 08:42:05;;;;;;;26.63;17.60;;;;;;;6.21;100.00;100295.13;5032540;28;20033;-68
2021/11/21 08:44:31;;;;;;;27.33;19.45;;;;;;;6.24;100.00;100292.25;5032526;28;20104;-68
2021/11/21 08:46:56;;;;;;;27.38;18.80;;;;;;;6.30;100.00;100297.16;5032532;28;20065;-67
2021/11/21 08:49:22;;;;;;;30.30;19.33;;;;;;;6.33;100.00;100300.44;5032726;28;20025;-68
2021/11/21 08:51:48;;;;;;;34.30;21.20;;;;;;;6.37;100.00;100301.06;5014490;28;20021;-67
2021/11/21 08:54:16;;;;;;;35.40;23.52;;;;;;;6.43;100.00;100296.19;5032212;28;20040;-68
2021/11/21 08:56:42;;;;;;;31.38;21.85;;;;;;;6.47;100.00;100296.78;5014579;28;20030;-67
2021/11/21 08:59:08;;;;;;;34.58;22.67;;;;;;;6.48;100.00;100286.03;5014805;28;20025;-67
2021/11/21 09:01:34;;;;;;;33.25;21.77;;;;;;;6.42;100.00;100277.63;5032402;28;20036;-67
2021/11/21 09:03:59;;;;;;;37.80;22.38;;;;;;;6.57;100.00;100301.34;5032466;28;20029;-69
2021/11/21 09:06:25;;;;;;;38.08;23.13;;;;;;;6.61;100.00;100294.84;5032067;28;20385;-67
2021/11/21 09:08:50;;;;;;;37.15;22.92;;;;;;;6.61;100.00;100278.03;5032270;28;20040;-67
2021/11/21 09:11:16;;;;;;;34.35;23.08;;;;;;;6.67;100.00;100274.88;5030277;28;20543;-67
2021/11/21 09:13:41;;;;;;;42.38;24.08;;;;;;;6.77;100.00;100284.78;5032227;28;20070;-68
2021/11/21 09:16:08;;;;;;;38.88;23.10;;;;;;;6.80;100.00;100289.88;5031959;28;20033;-68
2021/11/21 09:18:34;;;;;;;40.53;24.55;;;;;;;6.81;100.00;100277.41;5032099;28;20029;-66
2021/11/21 09:21:00;;;;;;;38.20;24.75;;;;;;;6.94;100.00;100288.88;5032157;28;20105;-68
2021/11/21 09:23:26;;;;;;;38.40;24.70;;;;;;;7.00;100.00;100272.44;5031817;28;20104;-67
2021/11/21 09:25:52;;;;;;;40.85;25.83;;;;;;;7.09;100.00;100274.41;5031743;28;20112;-67
2021/11/21 09:28:21;;;;;;;41.30;26.20;;;;;;;7.11;100.00;100260.97;5031901;28;20029;-68
2021/11/21 09:30:47;;;;;;;64.63;34.30;;;;;;;7.20;100.00;100262.94;5031508;28;20025;-67
2021/11/21 09:33:13;;;;;;;50.63;28.02;;;;;;;7.32;100.00;100248.69;5031584;28;20107;-68
2021/11/21 09:35:39;;;;;;;62.78;33.53;;;;;;;7.43;100.00;100267.41;5031562;28;20057;-71
2021/11/21 09:38:05;;;;;;;79.38;51.70;;;;;;;7.50;100.00;100248.13;5025326;28;20519;-71
2021/11/21 09:40:31;;;;;;;77.28;52.60;;;;;;;7.51;100.00;100244.50;5051783;28;20025;-71
2021/11/21 09:42:56;;;;;;;46.58;31.13;;;;;;;7.67;99.88;100253.03;5051338;28;20024;-72
2021/11/21 09:45:22;;;;;;;44.20;27.75;;;;;;;7.72;99.58;100236.66;5033209;28;20048;-73
2021/11/21 09:47:53;;;;;;;44.45;27.63;;;;;;;7.78;99.37;100233.53;5033549;28;20544;-70
2021/11/21 09:50:20;;;;;;;38.38;25.55;;;;;;;7.86;99.76;100226.63;5051426;28;20036;-72
2021/11/21 09:52:47;;;;;;;42.15;26.30;;;;;;;7.95;98.85;100225.03;5051145;28;20466;-71
2021/11/21 09:55:12;;;;;;;41.30;25.88;;;;;;;8.04;98.40;100232.34;5033281;28;20024;-71
2021/11/21 09:57:38;;;;;;;42.95;26.67;;;;;;;8.01;98.60;100204.06;5050927;28;20090;-70
2021/11/21 10:00:06;;;;;;;44.92;27.83;;;;;;;8.15;98.04;100219.81;5033609;28;20459;-71
2021/11/21 10:02:38;;;;;;;51.97;30.17;;;;;;;8.23;97.82;100212.09;5051032;28;20025;-72
2021/11/21 10:05:06;;;;;;;48.03;28.33;;;;;;;8.30;97.23;100207.09;5051125;28;20021;-72
2021/11/21 10:07:34;;;;;;;47.88;28.40;;;;;;;8.35;97.16;100208.44;5051549;28;20548;-72
2021/11/21 10:10:02;;;;;;;48.38;29.40;;;;;;;8.41;96.78;100212.41;5051279;28;20021;-71
2021/11/21 10:12:41;;;;;;;48.97;30.60;;;;;;;8.48;96.56;100194.94;5050745;28;20029;-71
2021/11/21 10:15:07;;;;;;;54.63;30.95;;;;;;;8.48;96.15;100205.63;5050796;28;20476;-71
2021/11/21 10:17:33;;;;;;;51.47;31.08;;;;;;;8.41;95.93;100183.03;5051293;28;20037;-70
2021/11/21 10:20:09;;;;;;;52.55;32.03;;;;;;;8.44;96.29;100180.97;5050961;28;20024;-71
2021/11/21 10:23:04;;;;;;;53.97;33.28;;;;;;;8.43;96.52;100176.59;5033190;28;20461;-70
2021/11/21 10:25:37;;;;;;;87.05;48.83;;;;;;;8.44;97.32;100170.28;5050762;28;20481;-72
2021/11/21 10:28:06;;;;;;;55.72;33.85;;;;;;;8.47;97.44;100167.34;5051195;28;20029;-72
2021/11/21 10:30:32;;;;;;;52.17;32.55;;;;;;;8.47;97.39;100175.38;5033185;28;20049;-74
2021/11/21 10:33:05;;;;;;;58.05;36.38;;;;;;;8.49;97.34;100159.22;5050527;28;20029;-71
2021/11/21 10:35:31;;;;;;;64.85;38.55;;;;;;;8.51;98.40;100166.13;5050620;28;20516;-67
2021/11/21 10:37:58;;;;;;;58.17;35.03;;;;;;;8.51;98.94;100135.88;5041163;28;20068;-67
2021/11/21 10:40:23;;;;;;;56.38;33.78;;;;;;;8.59;99.11;100157.47;5030366;28;20037;-68
2021/11/21 10:42:52;;;;;;;51.63;33.17;;;;;;;8.60;98.33;100145.81;5030352;28;20382;-68
2021/11/21 10:45:24;;;;;;;62.55;34.58;;;;;;;8.60;98.63;100132.44;5030548;28;20136;-67
2021/11/21 10:47:55;;;;;;;52.28;33.42;;;;;;;8.67;98.79;100136.31;5030307;28;20072;-67
2021/11/21 10:50:39;;;;;;;54.85;34.45;;;;;;;8.68;98.92;100135.34;5030231;28;20026;-67
2021/11/21 10:53:08;;;;;;;52.85;33.75;;;;;;;8.70;99.06;100136.06;5030442;28;20076;-68
2021/11/21 10:55:34;;;;;;;54.75;33.40;;;;;;;8.66;99.46;100124.78;5030597;28;20033;-67
2021/11/21 10:58:11;;;;;;;54.90;34.05;;;;;;;8.68;99.49;100116.63;5030158;28;20061;-67
2021/11/21 11:00:36;;;;;;;55.80;33.78;;;;;;;8.68;99.27;100114.78;5030558;28;20037;-67
2021/11/21 11:03:02;;;;;;;58.20;36.10;;;;;;;8.72;99.61;100123.41;5030104;28;20083;-67
2021/11/21 11:05:27;;;;;;;54.05;33.90;;;;;;;8.72;99.67;100118.94;5030078;28;20105;-68
2021/11/21 11:08:02;;;;;;;59.13;35.63;;;;;;;8.79;99.99;100122.78;5012473;28;20041;-68
2021/11/21 11:10:32;;;;;;;53.97;35.03;;;;;;;8.82;100.00;100109.16;5012418;28;20111;-68
2021/11/21 11:13:08;;;;;;;56.95;35.42;;;;;;;8.87;100.00;100111.44;5029931;28;20030;-67